Flight Track Log - Related Links

Times and Time Zones

All times are in EDT time to prevent confusion due to time zone crossing. See the ASQ4337 flight status page for this flight to view local times or setup timezone preferences in your user account.

Time Position Orientation Groundspeed Altitude Reporting Facility
EDT Latitude Longitude Course Direction KTS MPH feet Rate Location/Type
Fri 07:42:39 PM 37.6028 -97.4494 187° South 166 191 3,800  Level Kansas City Center
Fri 07:43:08 PM 37.5783 -97.4433 169° South 185 213 4,800 1,900 Climbing Kansas City Center
Fri 07:43:39 PM 37.5483 -97.4314 162° South 220 253 5,700 1,742 Climbing Kansas City Center
Fri 07:44:10 PM 37.5194 -97.4197 162° South 206 237 6,600 1,806 Climbing Kansas City Center
Fri 07:45:12 PM 37.4469 -97.4019 169° South 260 299 8,500 1,790 Climbing Kansas City Center
Fri 07:46:00 PM 37.2345 -97.3091 165° South  Level Estimated
Fri 07:46:14 PM 37.3686 -97.3867 171° South 282 325 10,300  Level Kansas City Center
Fri 07:47:00 PM 37.1514 -97.2844 169° South  Level Estimated
Fri 07:47:15 PM 37.2825 -97.3658 169° South 307 353 11,500  Level Kansas City Center
Fri 07:48:18 PM 37.1906 -97.3325 164° South 338 389 12,900 1,161 Climbing Kansas City Center
Fri 07:49:19 PM 37.0939 -97.2936 162° South 358 412 13,900 1,073 Climbing Kansas City Center
Fri 07:50:21 PM 36.9714 -97.2442 162° South 381 438 15,100 1,113 Climbing Kansas City Center
Fri 07:51:23 PM 36.8658 -97.2039 163° South 392 451 16,200 1,065 Climbing Kansas City Center
Fri 07:52:25 PM 36.7675 -97.1642 162° South 393 452 17,300 1,258 Climbing Kansas City Center
Fri 07:53:27 PM 36.6381 -97.1494 175° South 393 452 18,800 1,306 Climbing Kansas City Center
Fri 07:54:29 PM 36.5300 -97.1453 178° South 392 451 20,000 1,161 Climbing Kansas City Center
Fri 07:55:31 PM 36.4189 -97.1369 177° South 393 452 21,200 1,210 Climbing Kansas City Center
Fri 07:56:33 PM 36.3053 -97.1292 177° South 403 464 22,500 1,161 Climbing Kansas City Center
Fri 07:57:35 PM 36.1922 -97.1217 177° South 404 465 23,600 1,113 Climbing Kansas City Center
Fri 07:58:37 PM 36.0786 -97.1133 177° South 405 466 24,800 1,161 Climbing Kansas City Center
Fri 07:59:39 PM 35.9636 -97.1056 177° South 409 471 26,000 1,317 Climbing Kansas City Center
Fri 08:00:40 PM 35.8278 -97.0967 177° South 409 471 27,500 1,415 Climbing Kansas City Center
Fri 08:01:42 PM 35.7158 -97.0881 176° South 407 468 28,900 1,355 Climbing Kansas City Center
Fri 08:02:44 PM 35.6047 -97.0806 177° South 402 463 30,300 1,323 Climbing Kansas City Center
Fri 08:03:49 PM 35.4928 -97.0736 177° South 400 460 31,700 871 Climbing Fort Worth Center
Fri 08:05:50 PM 35.2650 -97.0581 177° South 405 466 33,000 417 Climbing Kansas City Center
Fri 08:06:56 PM 35.1158 -97.0489 177° South 437 503 33,000  Level Fort Worth Center
Fri 08:07:58 PM 34.9897 -97.0408 177° South 449 517 33,000  Level Fort Worth Center
Fri 08:09:00 PM 34.8617 -97.0328 177° South 455 524 33,000  Level Fort Worth Center
Fri 08:10:02 PM 34.7317 -97.0250 177° South 465 535 33,000  Level Fort Worth Center
Fri 08:11:04 PM 34.6028 -97.0153 176° South 465 535 33,000  Level Fort Worth Center
Fri 08:12:06 PM 34.4753 -97.0067 177° South 460 529 33,000  Level Fort Worth Center
Fri 08:13:08 PM 34.3483 -96.9994 177° South 459 528 33,000  Level Fort Worth Center
Fri 08:14:10 PM 34.1969 -96.9892 177° South 455 524 33,000  Level Fort Worth Center
Fri 08:15:12 PM 34.0817 -96.9806 176° South 455 524 33,000 -48 Level Fort Worth Center
Fri 08:16:14 PM 33.9561 -96.9717 177° South 451 519 32,900 -484 Descending Fort Worth Center
Fri 08:17:16 PM 33.8072 -96.9611 177° South 450 518 32,000 -435 Descending Fort Worth Center
Fri 08:18:18 PM 33.6817 -96.9528 177° South 450 518 32,000  Level Fort Worth Center
Fri 08:19:20 PM 33.5553 -96.9458 177° South 452 520 32,000  Level Fort Worth Center
Fri 08:20:22 PM 33.4281 -96.9358 176° South 453 521 32,000  Level Fort Worth Center
Fri 08:21:24 PM 33.3011 -96.9294 178° South 453 521 32,000  Level Fort Worth Center
Fri 08:22:26 PM 33.1731 -96.9206 177° South 456 525 32,000  Level Fort Worth Center
Fri 08:23:28 PM 33.0450 -96.9122 177° South 456 525 32,000  Level Fort Worth Center
Fri 08:24:30 PM 32.9036 -96.9033 177° South 417 480 32,000  Level Fort Worth Center
Fri 08:25:32 PM 32.7956 -96.9397 196° South 402 463 32,000  Level Fort Worth Center
Fri 08:26:34 PM 32.6903 -96.9897 202° Southwest 402 463 32,000  Level Fort Worth Center
Fri 08:27:36 PM 32.5844 -97.0389 201° Southwest 403 464 32,000  Level Fort Worth Center
Fri 08:28:38 PM 32.4797 -97.0878 201° Southwest 403 464 32,000  Level Fort Worth Center
Fri 08:29:41 PM 32.3767 -97.1367 202° Southwest 402 463 32,000  Level Fort Worth Center
Fri 08:30:43 PM 32.2722 -97.1864 202° Southwest 401 461 32,000  Level Fort Worth Center
Fri 08:31:45 PM 32.1692 -97.2344 202° Southwest 400 460 32,000  Level Fort Worth Center
Fri 08:32:47 PM 32.0456 -97.2903 201° Southwest 397 457 32,000  Level Fort Worth Center
Fri 08:33:49 PM 31.9450 -97.2678 169° South 415 478 32,000  Level Fort Worth Center
Fri 08:34:51 PM 31.8522 -97.1408 131° Southeast 431 496 32,000  Level Fort Worth Center
Fri 08:35:53 PM 31.8331 -96.9967 99° East 444 511 32,000  Level Fort Worth Center
Fri 08:36:55 PM 31.8200 -96.8506 96° East 445 512 32,000  Level Fort Worth Center
Fri 08:37:57 PM 31.8061 -96.7061 96° East 445 512 32,000 -581 Level Fort Worth Center
Fri 08:38:59 PM 31.7394 -96.5919 124° Southeast 445 512 30,800 -1,210 Descending Fort Worth Center
Fri 08:40:01 PM 31.6297 -96.5500 162° South 421 484 29,500 -871 Descending Fort Worth Center
Fri 08:41:03 PM 31.5089 -96.5111 165° South 443 510 29,000 -339 Descending Fort Worth Center
Fri 08:42:05 PM 31.3622 -96.4544 162° South 457 526 28,800 -1,065 Descending Fort Worth Center
Fri 08:43:07 PM 31.2400 -96.4083 162° South 458 527 26,800 -2,032 Descending Fort Worth Center
Fri 08:44:09 PM 31.1217 -96.3650 163° South 450 518 24,600 -2,129 Descending Fort Worth Center
Fri 08:45:11 PM 31.0075 -96.3219 162° South 436 502 22,400 -2,081 Descending Fort Worth Center
Fri 08:46:13 PM 30.9019 -96.2756 159° South 418 481 20,300 -2,129 Descending Fort Worth Center
Fri 08:47:15 PM 30.8103 -96.1975 144° Southeast 411 473 18,000 -2,226 Descending Fort Worth Center
Fri 08:48:17 PM 30.7272 -96.1172 140° Southeast 394 453 15,700 -2,419 Descending Fort Worth Center
Fri 08:49:19 PM 30.6256 -96.0228 141° Southeast 390 449 13,000 -2,371 Descending Fort Worth Center
Fri 08:50:21 PM 30.5442 -95.9500 142° Southeast 379 436 10,800 -1,452 Descending Fort Worth Center
Fri 08:51:23 PM 30.4733 -95.8825 141° Southeast 344 396 10,000 -629 Descending Fort Worth Center
Fri 08:52:25 PM 30.4011 -95.8431 155° Southeast 315 362 9,500 -1,016 Descending Fort Worth Center
Fri 08:53:27 PM 30.3211 -95.8336 174° South 293 337 7,900 -1,355 Descending Fort Worth Center
Fri 08:54:29 PM 30.2475 -95.8269 176° South 274 315 6,700 -919 Descending Fort Worth Center
Fri 08:55:31 PM 30.1692 -95.8214 176° South 243 280 6,000 -823 Descending Fort Worth Center
Fri 08:56:33 PM 30.1086 -95.8161 176° South 224 258 5,000 -916 Descending Fort Worth Center
Fri 08:57:42 PM 30.0383 -95.8217 184° South 199 229 4,000 -750 Descending Houston Center
Fri 08:57:53 PM 30.0319 -95.8206 171° South 215 247 4,000 -393 Level Houston Center
Fri 08:58:43 PM 30.0047 -95.7750 125° Southeast 198 228 3,600 -393 Descending Houston Center
Fri 08:58:54 PM 30.0033 -95.7692 105° East 197 227 3,600 -484 Level Houston Center
Fri 08:59:45 PM 30.0056 -95.7122 87° East 193 222 3,100 -484 Descending Houston Center
Fri 08:59:56 PM 30.0061 -95.7061 84° East 195 224 3,100  Level Houston Center
Fri 09:00:46 PM 30.0061 -95.6494 90° East 189 217 3,100 -98 Level Houston Center
Fri 09:00:57 PM 30.0061 -95.6456 90° East 191 220 3,000 -82 Descending Houston Center
Fri 09:01:59 PM 30.0067 -95.5822 89° East 194 223 3,000 -108 Level Houston Center
Fri 09:02:48 PM 30.0072 -95.5214 89° East 193 222 2,800 -194 Descending Houston Center
Fri 09:03:01 PM 30.0064 -95.5192 113° Southeast 194 223 2,800 -984 Level Houston Center
Fri 09:03:49 PM 30.0058 -95.4589 91° East 191 220 1,800 -1,180 Descending Houston Center
Fri 09:04:02 PM 30.0069 -95.4464 84° East 194 223 1,600 -677 Descending Houston Center
Fri 09:04:51 PM 30.0061 -95.4153 92° East 123 142 1,100 -581 Descending Houston Center
Fri 09:05:04 PM 30.0064 -95.4061 88° East 152 175 1,000 -689 Descending Houston Center
Fri 09:05:52 PM 30.0064 -95.3744 90° East 125 144 400 -590 Descending Houston Center
Fri 09:06:05 PM 30.0075 -95.3628 84° East 136 157 400  Level Houston Center

Login

Don't have an account? Register now (free) for customized features, flight alerts, and more!